Terminal Aerodrome Forecast
Issued by NWS

Home | Current Version | Previous Version | Text Only | Print | Product List | Glossary On
Versions: 1 2 3 4 5 6 7 8 9 10 11 12 13 14 15 16 17 18 19 20 21 22 23 24 25 26 27 28 29 30
000
FTUS41 KCAR 200500 RRA
TAFPQI
TAF
KPQI 200550Z 2006/2106 31008KT P6SM OVC060
     FM201100 28008KT P6SM SCT250
     FM201400 28012KT P6SM SCT250
     FM202300 26008KT P6SM SCT250
     FM210300 25004KT P6SM BKN110
      AMD LTD TO CLD VIS AND WIND=

USA.gov is the U.S. government's official web portal to all federal, state and local government web resources and services.